sensor_id;sensor_type;location;lat;lon;timestamp;P1;durP1;ratioP1;P2;durP2;ratioP2
75645;SDS011;64237;52.438;13.240;2022-10-31T00:00:46;26.00;;;15.13;;
75645;SDS011;64237;52.438;13.240;2022-10-31T00:03:12;31.15;;;15.38;;
75645;SDS011;64237;52.438;13.240;2022-10-31T00:05:44;26.83;;;14.80;;
75645;SDS011;64237;52.438;13.240;2022-10-31T00:08:11;25.52;;;14.85;;
75645;SDS011;64237;52.438;13.240;2022-10-31T00:10:40;24.33;;;13.10;;
75645;SDS011;64237;52.438;13.240;2022-10-31T00:13:07;27.42;;;14.82;;
75645;SDS011;64237;52.438;13.240;2022-10-31T00:15:34;27.00;;;14.95;;
75645;SDS011;64237;52.438;13.240;2022-10-31T00:18:00;25.25;;;14.23;;
75645;SDS011;64237;52.438;13.240;2022-10-31T00:20:26;25.35;;;13.95;;
75645;SDS011;64237;52.438;13.240;2022-10-31T00:22:52;25.45;;;14.63;;
75645;SDS011;64237;52.438;13.240;2022-10-31T00:25:17;28.47;;;14.43;;
75645;SDS011;64237;52.438;13.240;2022-10-31T00:27:42;25.10;;;13.63;;
75645;SDS011;64237;52.438;13.240;2022-10-31T00:30:08;26.37;;;15.70;;
75645;SDS011;64237;52.438;13.240;2022-10-31T00:32:33;26.40;;;14.85;;
75645;SDS011;64237;52.438;13.240;2022-10-31T00:34:58;28.67;;;14.90;;
75645;SDS011;64237;52.438;13.240;2022-10-31T00:37:24;24.63;;;14.10;;
75645;SDS011;64237;52.438;13.240;2022-10-31T00:39:49;27.02;;;13.65;;
75645;SDS011;64237;52.438;13.240;2022-10-31T00:42:15;26.70;;;14.70;;
75645;SDS011;64237;52.438;13.240;2022-10-31T00:44:40;26.83;;;13.80;;
75645;SDS011;64237;52.438;13.240;2022-10-31T00:47:06;26.90;;;14.35;;
75645;SDS011;64237;52.438;13.240;2022-10-31T00:49:31;24.35;;;14.07;;
75645;SDS011;64237;52.438;13.240;2022-10-31T00:51:56;24.57;;;14.30;;
75645;SDS011;64237;52.438;13.240;2022-10-31T00:54:22;22.53;;;13.27;;
75645;SDS011;64237;52.438;13.240;2022-10-31T00:56:47;22.30;;;12.70;;
75645;SDS011;64237;52.438;13.240;2022-10-31T00:59:12;25.20;;;14.20;;
75645;SDS011;64237;52.438;13.240;2022-10-31T01:01:37;22.03;;;13.23;;
75645;SDS011;64237;52.438;13.240;2022-10-31T01:04:03;24.10;;;12.88;;
75645;SDS011;64237;52.438;13.240;2022-10-31T01:06:28;23.08;;;12.93;;
75645;SDS011;64237;52.438;13.240;2022-10-31T01:08:53;21.97;;;12.57;;
75645;SDS011;64237;52.438;13.240;2022-10-31T01:11:21;24.00;;;13.05;;
75645;SDS011;64237;52.438;13.240;2022-10-31T01:13:47;24.25;;;13.80;;
75645;SDS011;64237;52.438;13.240;2022-10-31T01:16:17;27.13;;;12.80;;
75645;SDS011;64237;52.438;13.240;2022-10-31T01:18:45;28.30;;;14.40;;
75645;SDS011;64237;52.438;13.240;2022-10-31T01:21:18;26.15;;;14.18;;
75645;SDS011;64237;52.438;13.240;2022-10-31T01:23:52;26.60;;;14.40;;
75645;SDS011;64237;52.438;13.240;2022-10-31T01:26:26;22.38;;;12.32;;
75645;SDS011;64237;52.438;13.240;2022-10-31T01:31:20;30.17;;;13.65;;
75645;SDS011;64237;52.438;13.240;2022-10-31T01:33:47;23.25;;;12.60;;
75645;SDS011;64237;52.438;13.240;2022-10-31T01:38:43;22.67;;;12.45;;
75645;SDS011;64237;52.438;13.240;2022-10-31T01:41:10;24.85;;;13.70;;
75645;SDS011;64237;52.438;13.240;2022-10-31T01:46:13;24.30;;;13.32;;
75645;SDS011;64237;52.438;13.240;2022-10-31T01:48:40;25.42;;;13.00;;
75645;SDS011;64237;52.438;13.240;2022-10-31T01:51:06;22.75;;;13.20;;
75645;SDS011;64237;52.438;13.240;2022-10-31T01:53:33;23.38;;;12.30;;
75645;SDS011;64237;52.438;13.240;2022-10-31T01:56:00;23.80;;;12.68;;
75645;SDS011;64237;52.438;13.240;2022-10-31T01:58:26;23.10;;;12.15;;
75645;SDS011;64237;52.438;13.240;2022-10-31T02:00:56;24.13;;;11.45;;
75645;SDS011;64237;52.438;13.240;2022-10-31T02:03:24;19.02;;;11.70;;
75645;SDS011;64237;52.438;13.240;2022-10-31T02:05:51;22.92;;;11.70;;
75645;SDS011;64237;52.438;13.240;2022-10-31T02:10:48;24.85;;;12.52;;
75645;SDS011;64237;52.438;13.240;2022-10-31T02:13:14;21.05;;;11.85;;
75645;SDS011;64237;52.438;13.240;2022-10-31T02:15:41;25.27;;;12.98;;
75645;SDS011;64237;52.438;13.240;2022-10-31T02:18:09;26.95;;;13.20;;
75645;SDS011;64237;52.438;13.240;2022-10-31T02:20:40;22.45;;;12.55;;
75645;SDS011;64237;52.438;13.240;2022-10-31T02:25:52;23.95;;;12.48;;
75645;SDS011;64237;52.438;13.240;2022-10-31T02:34:10;22.40;;;11.77;;
75645;SDS011;64237;52.438;13.240;2022-10-31T02:42:37;19.10;;;11.38;;
75645;SDS011;64237;52.438;13.240;2022-10-31T02:47:53;23.08;;;11.80;;
75645;SDS011;64237;52.438;13.240;2022-10-31T02:50:24;19.27;;;11.65;;
75645;SDS011;64237;52.438;13.240;2022-10-31T02:52:54;21.02;;;10.98;;
75645;SDS011;64237;52.438;13.240;2022-10-31T02:57:56;20.73;;;11.38;;
75645;SDS011;64237;52.438;13.240;2022-10-31T03:00:26;20.60;;;11.45;;
75645;SDS011;64237;52.438;13.240;2022-10-31T03:08:25;20.38;;;11.65;;
75645;SDS011;64237;52.438;13.240;2022-10-31T03:10:59;23.05;;;12.60;;
75645;SDS011;64237;52.438;13.240;2022-10-31T03:13:35;22.70;;;11.13;;
75645;SDS011;64237;52.438;13.240;2022-10-31T03:16:14;22.02;;;10.65;;
75645;SDS011;64237;52.438;13.240;2022-10-31T03:21:23;22.35;;;11.63;;
75645;SDS011;64237;52.438;13.240;2022-10-31T03:23:52;22.85;;;11.45;;
75645;SDS011;64237;52.438;13.240;2022-10-31T03:26:21;19.58;;;10.43;;
75645;SDS011;64237;52.438;13.240;2022-10-31T03:28:52;22.30;;;11.52;;
75645;SDS011;64237;52.438;13.240;2022-10-31T03:31:23;20.75;;;11.02;;
75645;SDS011;64237;52.438;13.240;2022-10-31T03:33:53;18.65;;;11.23;;
75645;SDS011;64237;52.438;13.240;2022-10-31T03:36:23;20.98;;;10.95;;
75645;SDS011;64237;52.438;13.240;2022-10-31T03:38:50;20.55;;;10.48;;
75645;SDS011;64237;52.438;13.240;2022-10-31T03:41:18;18.80;;;10.00;;
75645;SDS011;64237;52.438;13.240;2022-10-31T03:43:49;19.77;;;10.82;;
75645;SDS011;64237;52.438;13.240;2022-10-31T03:46:19;18.70;;;10.43;;
75645;SDS011;64237;52.438;13.240;2022-10-31T03:48:44;19.50;;;9.45;;
75645;SDS011;64237;52.438;13.240;2022-10-31T03:53:44;16.67;;;9.18;;
75645;SDS011;64237;52.438;13.240;2022-10-31T03:56:19;21.58;;;10.73;;
75645;SDS011;64237;52.438;13.240;2022-10-31T03:58:56;20.05;;;9.85;;
75645;SDS011;64237;52.438;13.240;2022-10-31T04:01:22;16.50;;;9.18;;
75645;SDS011;64237;52.438;13.240;2022-10-31T04:03:50;21.10;;;10.02;;
75645;SDS011;64237;52.438;13.240;2022-10-31T04:06:17;19.92;;;11.38;;
75645;SDS011;64237;52.438;13.240;2022-10-31T04:08:56;19.80;;;9.65;;
75645;SDS011;64237;52.438;13.240;2022-10-31T04:11:27;22.42;;;10.45;;
75645;SDS011;64237;52.438;13.240;2022-10-31T04:13:56;20.13;;;9.60;;
75645;SDS011;64237;52.438;13.240;2022-10-31T04:16:23;18.02;;;10.40;;
75645;SDS011;64237;52.438;13.240;2022-10-31T04:18:49;17.02;;;9.27;;
75645;SDS011;64237;52.438;13.240;2022-10-31T04:21:15;17.52;;;9.82;;
75645;SDS011;64237;52.438;13.240;2022-10-31T04:23:41;17.77;;;9.25;;
75645;SDS011;64237;52.438;13.240;2022-10-31T04:26:07;19.88;;;10.27;;
75645;SDS011;64237;52.438;13.240;2022-10-31T04:28:39;20.85;;;11.43;;
75645;SDS011;64237;52.438;13.240;2022-10-31T04:31:05;19.05;;;10.23;;
75645;SDS011;64237;52.438;13.240;2022-10-31T04:33:30;18.63;;;9.75;;
75645;SDS011;64237;52.438;13.240;2022-10-31T04:35:55;18.67;;;9.93;;
75645;SDS011;64237;52.438;13.240;2022-10-31T04:38:21;18.27;;;9.75;;
75645;SDS011;64237;52.438;13.240;2022-10-31T04:40:46;16.10;;;9.13;;
75645;SDS011;64237;52.438;13.240;2022-10-31T04:43:11;24.17;;;11.03;;
75645;SDS011;64237;52.438;13.240;2022-10-31T04:45:37;19.27;;;9.63;;
75645;SDS011;64237;52.438;13.240;2022-10-31T04:48:02;21.90;;;10.48;;
75645;SDS011;64237;52.438;13.240;2022-10-31T04:50:28;21.52;;;11.68;;
75645;SDS011;64237;52.438;13.240;2022-10-31T04:52:53;17.50;;;10.07;;
75645;SDS011;64237;52.438;13.240;2022-10-31T04:55:18;19.17;;;9.30;;
75645;SDS011;64237;52.438;13.240;2022-10-31T04:57:46;22.75;;;11.10;;
75645;SDS011;64237;52.438;13.240;2022-10-31T05:00:14;17.77;;;9.18;;
75645;SDS011;64237;52.438;13.240;2022-10-31T05:02:42;15.82;;;8.25;;
75645;SDS011;64237;52.438;13.240;2022-10-31T05:05:11;51.75;;;17.13;;
75645;SDS011;64237;52.438;13.240;2022-10-31T05:07:38;17.02;;;7.97;;
75645;SDS011;64237;52.438;13.240;2022-10-31T05:10:05;14.07;;;7.20;;
75645;SDS011;64237;52.438;13.240;2022-10-31T05:12:30;12.63;;;7.07;;
75645;SDS011;64237;52.438;13.240;2022-10-31T05:14:55;13.97;;;6.87;;
75645;SDS011;64237;52.438;13.240;2022-10-31T05:17:21;15.95;;;7.63;;
75645;SDS011;64237;52.438;13.240;2022-10-31T05:19:46;15.25;;;7.30;;
75645;SDS011;64237;52.438;13.240;2022-10-31T05:22:11;16.13;;;6.83;;
75645;SDS011;64237;52.438;13.240;2022-10-31T05:24:37;15.63;;;7.63;;
75645;SDS011;64237;52.438;13.240;2022-10-31T05:27:02;14.03;;;7.27;;
75645;SDS011;64237;52.438;13.240;2022-10-31T05:29:27;12.88;;;7.80;;
75645;SDS011;64237;52.438;13.240;2022-10-31T05:31:53;13.73;;;6.78;;
75645;SDS011;64237;52.438;13.240;2022-10-31T05:34:18;16.10;;;7.15;;
75645;SDS011;64237;52.438;13.240;2022-10-31T05:36:43;14.73;;;7.15;;
75645;SDS011;64237;52.438;13.240;2022-10-31T05:39:09;15.70;;;7.78;;
75645;SDS011;64237;52.438;13.240;2022-10-31T05:41:36;16.98;;;7.88;;
75645;SDS011;64237;52.438;13.240;2022-10-31T05:44:01;13.50;;;6.75;;
75645;SDS011;64237;52.438;13.240;2022-10-31T05:46:27;18.08;;;7.78;;
75645;SDS011;64237;52.438;13.240;2022-10-31T05:48:53;16.33;;;7.35;;
75645;SDS011;64237;52.438;13.240;2022-10-31T05:51:18;13.15;;;7.10;;
75645;SDS011;64237;52.438;13.240;2022-10-31T05:53:43;12.93;;;6.60;;
75645;SDS011;64237;52.438;13.240;2022-10-31T05:56:11;16.30;;;6.75;;
75645;SDS011;64237;52.438;13.240;2022-10-31T05:58:36;13.93;;;7.03;;
75645;SDS011;64237;52.438;13.240;2022-10-31T06:01:01;13.53;;;7.20;;
75645;SDS011;64237;52.438;13.240;2022-10-31T06:03:27;15.70;;;7.13;;
75645;SDS011;64237;52.438;13.240;2022-10-31T06:05:52;13.87;;;6.40;;
75645;SDS011;64237;52.438;13.240;2022-10-31T06:08:17;16.33;;;6.80;;
75645;SDS011;64237;52.438;13.240;2022-10-31T06:10:43;12.85;;;6.18;;
75645;SDS011;64237;52.438;13.240;2022-10-31T06:13:08;14.48;;;6.57;;
75645;SDS011;64237;52.438;13.240;2022-10-31T06:15:34;13.07;;;6.55;;
75645;SDS011;64237;52.438;13.240;2022-10-31T06:18:00;16.70;;;7.60;;
75645;SDS011;64237;52.438;13.240;2022-10-31T06:20:30;13.40;;;7.35;;
75645;SDS011;64237;52.438;13.240;2022-10-31T06:22:57;14.07;;;6.07;;
75645;SDS011;64237;52.438;13.240;2022-10-31T06:25:23;12.10;;;6.95;;
75645;SDS011;64237;52.438;13.240;2022-10-31T06:27:48;12.57;;;6.60;;
75645;SDS011;64237;52.438;13.240;2022-10-31T06:30:14;14.07;;;7.38;;
75645;SDS011;64237;52.438;13.240;2022-10-31T06:32:40;17.00;;;7.03;;
75645;SDS011;64237;52.438;13.240;2022-10-31T06:35:05;13.23;;;6.35;;
75645;SDS011;64237;52.438;13.240;2022-10-31T06:37:31;12.48;;;6.80;;
75645;SDS011;64237;52.438;13.240;2022-10-31T06:39:56;14.13;;;6.47;;
75645;SDS011;64237;52.438;13.240;2022-10-31T06:42:21;14.18;;;6.80;;
75645;SDS011;64237;52.438;13.240;2022-10-31T06:44:47;14.77;;;7.30;;
75645;SDS011;64237;52.438;13.240;2022-10-31T06:47:12;18.38;;;7.95;;
75645;SDS011;64237;52.438;13.240;2022-10-31T06:49:38;17.17;;;7.40;;
75645;SDS011;64237;52.438;13.240;2022-10-31T06:52:04;16.48;;;7.90;;
75645;SDS011;64237;52.438;13.240;2022-10-31T06:54:29;13.48;;;7.13;;
75645;SDS011;64237;52.438;13.240;2022-10-31T06:56:55;14.30;;;6.65;;
75645;SDS011;64237;52.438;13.240;2022-10-31T06:59:20;13.18;;;7.15;;
75645;SDS011;64237;52.438;13.240;2022-10-31T07:01:46;13.73;;;6.50;;
75645;SDS011;64237;52.438;13.240;2022-10-31T07:04:11;12.57;;;6.50;;
75645;SDS011;64237;52.438;13.240;2022-10-31T07:06:37;13.38;;;7.18;;
75645;SDS011;64237;52.438;13.240;2022-10-31T07:09:02;15.70;;;7.47;;
75645;SDS011;64237;52.438;13.240;2022-10-31T07:11:28;14.95;;;7.43;;
75645;SDS011;64237;52.438;13.240;2022-10-31T07:13:54;16.48;;;8.55;;
75645;SDS011;64237;52.438;13.240;2022-10-31T07:16:19;13.25;;;7.05;;
75645;SDS011;64237;52.438;13.240;2022-10-31T07:18:44;16.27;;;7.60;;
75645;SDS011;64237;52.438;13.240;2022-10-31T07:21:10;16.30;;;7.88;;
75645;SDS011;64237;52.438;13.240;2022-10-31T07:23:35;18.30;;;9.33;;
75645;SDS011;64237;52.438;13.240;2022-10-31T07:26:00;17.85;;;8.02;;
75645;SDS011;64237;52.438;13.240;2022-10-31T07:28:26;18.70;;;9.05;;
75645;SDS011;64237;52.438;13.240;2022-10-31T07:30:52;20.30;;;9.10;;
75645;SDS011;64237;52.438;13.240;2022-10-31T07:33:19;22.50;;;11.05;;
75645;SDS011;64237;52.438;13.240;2022-10-31T07:35:45;19.90;;;8.43;;
75645;SDS011;64237;52.438;13.240;2022-10-31T07:38:12;19.20;;;9.70;;
75645;SDS011;64237;52.438;13.240;2022-10-31T07:40:39;22.30;;;10.48;;
75645;SDS011;64237;52.438;13.240;2022-10-31T07:43:05;21.52;;;10.60;;
75645;SDS011;64237;52.438;13.240;2022-10-31T07:45:31;27.25;;;11.65;;
75645;SDS011;64237;52.438;13.240;2022-10-31T07:47:56;26.35;;;10.65;;
75645;SDS011;64237;52.438;13.240;2022-10-31T07:50:26;22.42;;;9.50;;
75645;SDS011;64237;52.438;13.240;2022-10-31T07:53:03;22.98;;;10.60;;
75645;SDS011;64237;52.438;13.240;2022-10-31T07:55:29;23.15;;;10.07;;
75645;SDS011;64237;52.438;13.240;2022-10-31T07:57:56;24.85;;;11.70;;
75645;SDS011;64237;52.438;13.240;2022-10-31T08:00:25;20.38;;;10.02;;
75645;SDS011;64237;52.438;13.240;2022-10-31T08:02:58;22.92;;;11.45;;
75645;SDS011;64237;52.438;13.240;2022-10-31T08:05:24;23.35;;;9.48;;
75645;SDS011;64237;52.438;13.240;2022-10-31T08:07:49;25.05;;;10.32;;
75645;SDS011;64237;52.438;13.240;2022-10-31T08:10:18;20.23;;;9.40;;
75645;SDS011;64237;52.438;13.240;2022-10-31T08:12:43;23.73;;;10.82;;
75645;SDS011;64237;52.438;13.240;2022-10-31T08:15:09;22.13;;;9.98;;
75645;SDS011;64237;52.438;13.240;2022-10-31T08:17:35;26.90;;;10.95;;
75645;SDS011;64237;52.438;13.240;2022-10-31T08:20:02;24.35;;;10.25;;
75645;SDS011;64237;52.438;13.240;2022-10-31T08:22:28;27.60;;;10.70;;
75645;SDS011;64237;52.438;13.240;2022-10-31T08:24:53;22.33;;;10.03;;
75645;SDS011;64237;52.438;13.240;2022-10-31T08:27:18;24.57;;;9.70;;
75645;SDS011;64237;52.438;13.240;2022-10-31T08:29:44;21.42;;;10.00;;
75645;SDS011;64237;52.438;13.240;2022-10-31T08:32:09;21.92;;;10.15;;
75645;SDS011;64237;52.438;13.240;2022-10-31T08:34:34;22.08;;;10.23;;
75645;SDS011;64237;52.438;13.240;2022-10-31T08:37:00;20.67;;;9.37;;
75645;SDS011;64237;52.438;13.240;2022-10-31T08:39:25;21.73;;;10.10;;
75645;SDS011;64237;52.438;13.240;2022-10-31T08:41:50;21.15;;;10.70;;
75645;SDS011;64237;52.438;13.240;2022-10-31T08:44:16;25.42;;;10.30;;
75645;SDS011;64237;52.438;13.240;2022-10-31T08:46:41;25.85;;;11.00;;
75645;SDS011;64237;52.438;13.240;2022-10-31T08:49:07;26.63;;;10.75;;
75645;SDS011;64237;52.438;13.240;2022-10-31T08:51:32;23.02;;;10.55;;
75645;SDS011;64237;52.438;13.240;2022-10-31T08:53:58;23.98;;;10.88;;
75645;SDS011;64237;52.438;13.240;2022-10-31T08:56:23;26.90;;;11.20;;
75645;SDS011;64237;52.438;13.240;2022-10-31T08:58:49;25.30;;;10.35;;
75645;SDS011;64237;52.438;13.240;2022-10-31T09:01:16;20.50;;;9.45;;
75645;SDS011;64237;52.438;13.240;2022-10-31T09:03:41;22.80;;;10.88;;
75645;SDS011;64237;52.438;13.240;2022-10-31T09:06:08;25.52;;;11.57;;
75645;SDS011;64237;52.438;13.240;2022-10-31T09:08:34;19.10;;;7.28;;
75645;SDS011;64237;52.438;13.240;2022-10-31T09:11:00;22.85;;;8.50;;
75645;SDS011;64237;52.438;13.240;2022-10-31T09:13:26;16.63;;;7.90;;
75645;SDS011;64237;52.438;13.240;2022-10-31T09:15:52;17.98;;;9.02;;
75645;SDS011;64237;52.438;13.240;2022-10-31T09:18:19;22.20;;;9.65;;
75645;SDS011;64237;52.438;13.240;2022-10-31T09:20:46;21.98;;;10.40;;
75645;SDS011;64237;52.438;13.240;2022-10-31T09:23:13;19.98;;;10.00;;
75645;SDS011;64237;52.438;13.240;2022-10-31T09:25:40;25.95;;;10.65;;
75645;SDS011;64237;52.438;13.240;2022-10-31T09:28:07;25.95;;;10.93;;
75645;SDS011;64237;52.438;13.240;2022-10-31T09:30:35;25.88;;;12.80;;
75645;SDS011;64237;52.438;13.240;2022-10-31T09:33:05;26.25;;;10.82;;
75645;SDS011;64237;52.438;13.240;2022-10-31T09:35:32;22.75;;;11.43;;
75645;SDS011;64237;52.438;13.240;2022-10-31T09:37:59;30.30;;;15.23;;
75645;SDS011;64237;52.438;13.240;2022-10-31T09:40:47;26.88;;;12.40;;
75645;SDS011;64237;52.438;13.240;2022-10-31T09:51:15;26.25;;;11.60;;
75645;SDS011;64237;52.438;13.240;2022-10-31T09:56:23;26.02;;;12.30;;
75645;SDS011;64237;52.438;13.240;2022-10-31T09:58:51;29.77;;;11.30;;
75645;SDS011;64237;52.438;13.240;2022-10-31T10:03:50;26.85;;;11.80;;
75645;SDS011;64237;52.438;13.240;2022-10-31T10:06:23;23.70;;;11.82;;
75645;SDS011;64237;52.438;13.240;2022-10-31T10:08:52;30.00;;;13.23;;
75645;SDS011;64237;52.438;13.240;2022-10-31T10:11:22;24.80;;;11.50;;
75645;SDS011;64237;52.438;13.240;2022-10-31T10:30:33;24.52;;;12.23;;
75645;SDS011;64237;52.438;13.240;2022-10-31T10:32:59;27.10;;;11.38;;
75645;SDS011;64237;52.438;13.240;2022-10-31T10:35:31;23.33;;;12.57;;
75645;SDS011;64237;52.438;13.240;2022-10-31T10:38:14;29.77;;;12.65;;
75645;SDS011;64237;52.438;13.240;2022-10-31T10:40:56;28.60;;;12.00;;
75645;SDS011;64237;52.438;13.240;2022-10-31T10:43:37;25.38;;;11.98;;
75645;SDS011;64237;52.438;13.240;2022-10-31T10:49:18;24.10;;;11.00;;
75645;SDS011;64237;52.438;13.240;2022-10-31T10:51:58;22.27;;;10.77;;
75645;SDS011;64237;52.438;13.240;2022-10-31T11:00:26;23.48;;;10.80;;
75645;SDS011;64237;52.438;13.240;2022-10-31T11:02:56;23.83;;;11.38;;
75645;SDS011;64237;52.438;13.240;2022-10-31T11:05:33;24.30;;;11.32;;
75645;SDS011;64237;52.438;13.240;2022-10-31T11:07:59;25.80;;;11.75;;
75645;SDS011;64237;52.438;13.240;2022-10-31T11:10:24;22.57;;;10.00;;
75645;SDS011;64237;52.438;13.240;2022-10-31T11:15:37;31.30;;;12.18;;
75645;SDS011;64237;52.438;13.240;2022-10-31T11:18:19;27.48;;;12.40;;
75645;SDS011;64237;52.438;13.240;2022-10-31T11:20:50;27.05;;;11.85;;
75645;SDS011;64237;52.438;13.240;2022-10-31T11:23:18;22.83;;;11.57;;
75645;SDS011;64237;52.438;13.240;2022-10-31T11:25:55;29.23;;;11.52;;
75645;SDS011;64237;52.438;13.240;2022-10-31T11:28:25;26.52;;;12.02;;
75645;SDS011;64237;52.438;13.240;2022-10-31T11:31:12;31.48;;;13.68;;
75645;SDS011;64237;52.438;13.240;2022-10-31T11:38:48;25.00;;;11.20;;
75645;SDS011;64237;52.438;13.240;2022-10-31T11:41:18;22.48;;;10.95;;
75645;SDS011;64237;52.438;13.240;2022-10-31T11:43:50;25.60;;;11.38;;
75645;SDS011;64237;52.438;13.240;2022-10-31T11:46:24;26.85;;;11.23;;
75645;SDS011;64237;52.438;13.240;2022-10-31T11:48:52;20.05;;;9.90;;
75645;SDS011;64237;52.438;13.240;2022-10-31T11:51:20;20.67;;;11.00;;
75645;SDS011;64237;52.438;13.240;2022-10-31T11:53:52;20.08;;;9.27;;
75645;SDS011;64237;52.438;13.240;2022-10-31T11:56:20;21.98;;;10.95;;
75645;SDS011;64237;52.438;13.240;2022-10-31T11:59:02;21.90;;;10.77;;
75645;SDS011;64237;52.438;13.240;2022-10-31T12:01:30;22.58;;;10.73;;
75645;SDS011;64237;52.438;13.240;2022-10-31T12:06:28;21.52;;;11.65;;
75645;SDS011;64237;52.438;13.240;2022-10-31T12:08:58;20.85;;;10.45;;
75645;SDS011;64237;52.438;13.240;2022-10-31T12:14:17;24.25;;;11.55;;
75645;SDS011;64237;52.438;13.240;2022-10-31T12:25:11;31.83;;;12.57;;
75645;SDS011;64237;52.438;13.240;2022-10-31T12:27:58;23.45;;;12.02;;
75645;SDS011;64237;52.438;13.240;2022-10-31T12:57:40;29.20;;;12.95;;
75645;SDS011;64237;52.438;13.240;2022-10-31T13:00:11;26.83;;;13.95;;
75645;SDS011;64237;52.438;13.240;2022-10-31T13:02:58;26.92;;;13.45;;
75645;SDS011;64237;52.438;13.240;2022-10-31T13:05:41;27.63;;;12.93;;
75645;SDS011;64237;52.438;13.240;2022-10-31T13:08:11;27.27;;;14.23;;
75645;SDS011;64237;52.438;13.240;2022-10-31T13:16:10;27.25;;;14.40;;
75645;SDS011;64237;52.438;13.240;2022-10-31T13:21:22;31.48;;;14.02;;
75645;SDS011;64237;52.438;13.240;2022-10-31T13:23:51;32.83;;;16.05;;
75645;SDS011;64237;52.438;13.240;2022-10-31T13:26:26;32.55;;;15.23;;
75645;SDS011;64237;52.438;13.240;2022-10-31T13:29:17;30.00;;;14.65;;
75645;SDS011;64237;52.438;13.240;2022-10-31T13:31:48;30.77;;;13.88;;
75645;SDS011;64237;52.438;13.240;2022-10-31T13:45:20;34.85;;;17.13;;
75645;SDS011;64237;52.438;13.240;2022-10-31T13:50:24;39.60;;;16.95;;
75645;SDS011;64237;52.438;13.240;2022-10-31T13:53:09;39.60;;;17.75;;
75645;SDS011;64237;52.438;13.240;2022-10-31T13:55:45;36.40;;;17.95;;
75645;SDS011;64237;52.438;13.240;2022-10-31T13:58:22;38.95;;;18.05;;
75645;SDS011;64237;52.438;13.240;2022-10-31T14:01:02;42.85;;;17.80;;
75645;SDS011;64237;52.438;13.240;2022-10-31T14:03:36;39.47;;;21.30;;
75645;SDS011;64237;52.438;13.240;2022-10-31T14:06:03;35.83;;;17.27;;
75645;SDS011;64237;52.438;13.240;2022-10-31T14:08:29;40.28;;;18.80;;
75645;SDS011;64237;52.438;13.240;2022-10-31T14:10:59;39.45;;;17.85;;
75645;SDS011;64237;52.438;13.240;2022-10-31T14:16:02;37.25;;;17.70;;
75645;SDS011;64237;52.438;13.240;2022-10-31T14:18:32;39.72;;;17.75;;
75645;SDS011;64237;52.438;13.240;2022-10-31T14:21:00;36.70;;;18.30;;
75645;SDS011;64237;52.438;13.240;2022-10-31T14:23:58;42.40;;;18.30;;
75645;SDS011;64237;52.438;13.240;2022-10-31T14:28:52;42.83;;;17.95;;
75645;SDS011;64237;52.438;13.240;2022-10-31T14:52:18;48.15;;;21.30;;
75645;SDS011;64237;52.438;13.240;2022-10-31T14:54:45;49.00;;;21.65;;
75645;SDS011;64237;52.438;13.240;2022-10-31T14:57:17;49.58;;;20.83;;
75645;SDS011;64237;52.438;13.240;2022-10-31T14:59:55;44.75;;;21.90;;
75645;SDS011;64237;52.438;13.240;2022-10-31T15:02:24;50.45;;;21.60;;
75645;SDS011;64237;52.438;13.240;2022-10-31T15:04:57;44.70;;;19.63;;
75645;SDS011;64237;52.438;13.240;2022-10-31T15:07:24;54.17;;;22.38;;
75645;SDS011;64237;52.438;13.240;2022-10-31T15:09:58;56.42;;;21.42;;
75645;SDS011;64237;52.438;13.240;2022-10-31T15:12:30;43.25;;;21.42;;
75645;SDS011;64237;52.438;13.240;2022-10-31T15:17:49;50.35;;;21.65;;
75645;SDS011;64237;52.438;13.240;2022-10-31T15:20:20;52.70;;;22.38;;
75645;SDS011;64237;52.438;13.240;2022-10-31T15:22:48;60.08;;;22.25;;
75645;SDS011;64237;52.438;13.240;2022-10-31T15:25:18;51.38;;;21.98;;
75645;SDS011;64237;52.438;13.240;2022-10-31T15:27:45;54.97;;;23.33;;
75645;SDS011;64237;52.438;13.240;2022-10-31T15:32:44;64.18;;;24.48;;
75645;SDS011;64237;52.438;13.240;2022-10-31T15:35:10;61.65;;;24.35;;
75645;SDS011;64237;52.438;13.240;2022-10-31T15:37:35;56.95;;;23.60;;
75645;SDS011;64237;52.438;13.240;2022-10-31T15:40:11;53.58;;;23.55;;
75645;SDS011;64237;52.438;13.240;2022-10-31T15:42:40;61.97;;;23.50;;
75645;SDS011;64237;52.438;13.240;2022-10-31T15:47:38;52.72;;;22.55;;
75645;SDS011;64237;52.438;13.240;2022-10-31T15:50:19;56.15;;;24.33;;
75645;SDS011;64237;52.438;13.240;2022-10-31T15:52:52;50.33;;;21.58;;
75645;SDS011;64237;52.438;13.240;2022-10-31T15:55:18;58.13;;;22.88;;
75645;SDS011;64237;52.438;13.240;2022-10-31T15:57:53;71.30;;;24.60;;
75645;SDS011;64237;52.438;13.240;2022-10-31T16:05:48;54.45;;;21.73;;
75645;SDS011;64237;52.438;13.240;2022-10-31T16:10:54;53.35;;;22.67;;
75645;SDS011;64237;52.438;13.240;2022-10-31T16:13:23;54.65;;;22.83;;
75645;SDS011;64237;52.438;13.240;2022-10-31T16:15:56;49.28;;;22.13;;
75645;SDS011;64237;52.438;13.240;2022-10-31T16:18:25;53.17;;;21.52;;
75645;SDS011;64237;52.438;13.240;2022-10-31T16:20:53;56.75;;;22.48;;
75645;SDS011;64237;52.438;13.240;2022-10-31T16:23:20;47.28;;;23.45;;
75645;SDS011;64237;52.438;13.240;2022-10-31T16:25:49;55.33;;;23.02;;
75645;SDS011;64237;52.438;13.240;2022-10-31T16:28:19;57.20;;;23.10;;
75645;SDS011;64237;52.438;13.240;2022-10-31T16:30:55;50.33;;;21.73;;
75645;SDS011;64237;52.438;13.240;2022-10-31T16:35:59;45.90;;;20.75;;
75645;SDS011;64237;52.438;13.240;2022-10-31T16:38:27;50.25;;;22.27;;
75645;SDS011;64237;52.438;13.240;2022-10-31T16:40:52;51.83;;;22.25;;
75645;SDS011;64237;52.438;13.240;2022-10-31T16:43:19;53.75;;;23.30;;
75645;SDS011;64237;52.438;13.240;2022-10-31T16:45:50;58.88;;;23.83;;
75645;SDS011;64237;52.438;13.240;2022-10-31T16:48:17;60.90;;;25.25;;
75645;SDS011;64237;52.438;13.240;2022-10-31T16:50:46;58.53;;;25.65;;
75645;SDS011;64237;52.438;13.240;2022-10-31T16:53:13;61.88;;;25.05;;
75645;SDS011;64237;52.438;13.240;2022-10-31T16:55:43;62.72;;;25.15;;
75645;SDS011;64237;52.438;13.240;2022-10-31T16:58:19;63.80;;;26.63;;
75645;SDS011;64237;52.438;13.240;2022-10-31T17:00:49;61.70;;;26.73;;
75645;SDS011;64237;52.438;13.240;2022-10-31T17:03:15;65.72;;;25.67;;
75645;SDS011;64237;52.438;13.240;2022-10-31T17:05:41;68.85;;;26.67;;
75645;SDS011;64237;52.438;13.240;2022-10-31T17:08:06;68.63;;;27.08;;
75645;SDS011;64237;52.438;13.240;2022-10-31T17:10:31;67.07;;;25.65;;
75645;SDS011;64237;52.438;13.240;2022-10-31T17:12:58;70.50;;;26.95;;
75645;SDS011;64237;52.438;13.240;2022-10-31T17:15:25;63.85;;;25.73;;
75645;SDS011;64237;52.438;13.240;2022-10-31T17:17:52;62.47;;;24.83;;
75645;SDS011;64237;52.438;13.240;2022-10-31T17:22:50;68.47;;;25.15;;
75645;SDS011;64237;52.438;13.240;2022-10-31T17:25:20;63.33;;;24.20;;
75645;SDS011;64237;52.438;13.240;2022-10-31T17:27:47;107.88;;;25.40;;
75645;SDS011;64237;52.438;13.240;2022-10-31T17:30:14;65.78;;;25.98;;
75645;SDS011;64237;52.438;13.240;2022-10-31T17:32:42;75.47;;;26.77;;
75645;SDS011;64237;52.438;13.240;2022-10-31T17:35:09;72.10;;;26.42;;